createdAt,value
2022-08-25T00:00:24.746Z,9.40
2022-08-25T00:03:13.645Z,9.50
2022-08-25T00:05:41.489Z,11.00
2022-08-25T00:08:09.686Z,9.70
2022-08-25T00:10:39.584Z,10.40
2022-08-25T00:13:08.600Z,9.90
2022-08-25T00:15:38.503Z,10.50
2022-08-25T00:18:11.367Z,9.10
2022-08-25T00:20:49.274Z,9.90
2022-08-25T00:23:18.618Z,10.90
2022-08-25T00:25:46.846Z,11.40
2022-08-25T00:28:17.389Z,10.10
2022-08-25T00:30:46.172Z,10.30
2022-08-25T00:33:15.033Z,10.60
2022-08-25T00:35:43.921Z,11.00
2022-08-25T00:38:13.106Z,11.20
2022-08-25T00:40:43.009Z,10.30
2022-08-25T00:43:12.096Z,10.00
2022-08-25T00:45:41.026Z,10.40
2022-08-25T00:48:09.341Z,11.50
2022-08-25T00:50:37.821Z,11.20
2022-08-25T00:53:08.733Z,11.20
2022-08-25T00:55:40.625Z,11.00
2022-08-25T00:58:19.051Z,10.40
2022-08-25T01:00:51.310Z,10.80
2022-08-25T01:03:21.031Z,10.60
2022-08-25T01:05:54.063Z,10.60
2022-08-25T01:08:29.155Z,10.20
2022-08-25T01:10:59.576Z,11.60
2022-08-25T01:13:51.130Z,11.50
2022-08-25T01:16:19.898Z,10.10
2022-08-25T01:18:51.537Z,11.90
2022-08-25T01:21:22.437Z,10.60
2022-08-25T01:23:52.472Z,10.80
2022-08-25T01:26:28.323Z,10.60
2022-08-25T01:29:20.549Z,11.00
2022-08-25T01:31:51.123Z,11.20
2022-08-25T01:34:21.701Z,10.70
2022-08-25T01:36:50.065Z,11.70
2022-08-25T01:39:18.516Z,11.70
2022-08-25T01:42:05.741Z,11.10
2022-08-25T01:44:36.569Z,10.80
2022-08-25T01:47:06.631Z,10.40
2022-08-25T01:49:35.523Z,10.90
2022-08-25T01:52:29.173Z,10.50
2022-08-25T01:54:57.371Z,11.10
2022-08-25T01:57:25.103Z,11.80
2022-08-25T01:59:53.033Z,11.70
2022-08-25T02:02:20.791Z,11.00
2022-08-25T02:04:50.688Z,12.20
2022-08-25T02:07:19.516Z,11.40
2022-08-25T02:09:47.587Z,12.90
2022-08-25T02:12:16.118Z,11.90
2022-08-25T02:14:44.108Z,12.70
2022-08-25T02:17:12.111Z,13.30
2022-08-25T02:19:40.356Z,13.60
2022-08-25T02:22:09.204Z,13.40
2022-08-25T02:24:37.220Z,13.80
2022-08-25T02:27:05.649Z,12.80
2022-08-25T02:29:34.347Z,13.00
2022-08-25T02:32:03.915Z,13.50
2022-08-25T02:34:32.233Z,13.30
2022-08-25T02:37:00.729Z,14.00
2022-08-25T02:39:29.367Z,15.10
2022-08-25T02:41:57.134Z,16.10
2022-08-25T02:44:24.852Z,15.50
2022-08-25T02:46:52.830Z,14.90
2022-08-25T02:49:21.175Z,16.10
2022-08-25T02:51:49.250Z,17.00
2022-08-25T02:54:16.983Z,16.40
2022-08-25T02:56:45.189Z,17.70
2022-08-25T02:59:13.746Z,17.10
2022-08-25T03:01:42.798Z,18.00
2022-08-25T03:04:11.304Z,19.40
2022-08-25T03:06:40.119Z,18.10
2022-08-25T03:09:09.142Z,17.80
2022-08-25T03:11:38.932Z,18.10
2022-08-25T03:14:09.792Z,18.50
2022-08-25T03:16:38.595Z,18.50
2022-08-25T03:19:08.556Z,18.90
2022-08-25T03:21:39.120Z,18.20
2022-08-25T03:24:08.405Z,17.60
2022-08-25T03:26:55.111Z,18.30
2022-08-25T03:29:33.275Z,17.70
2022-08-25T03:32:02.095Z,20.00
2022-08-25T03:34:31.306Z,18.20
2022-08-25T03:36:59.992Z,18.50
2022-08-25T03:39:29.383Z,18.00
2022-08-25T03:41:57.197Z,19.30
2022-08-25T03:44:25.921Z,18.30
2022-08-25T03:46:54.262Z,18.50
2022-08-25T03:49:24.766Z,19.20
2022-08-25T03:51:55.269Z,18.70
2022-08-25T03:54:26.352Z,17.10
2022-08-25T03:56:55.210Z,17.20
2022-08-25T03:59:23.599Z,18.70
2022-08-25T04:01:55.121Z,17.20
2022-08-25T04:04:24.235Z,16.50
2022-08-25T04:06:53.417Z,16.30
2022-08-25T04:09:22.326Z,16.50
2022-08-25T04:11:52.996Z,16.10
2022-08-25T04:14:23.956Z,14.90
2022-08-25T04:16:53.122Z,14.30
2022-08-25T04:19:22.395Z,14.00
2022-08-25T04:21:52.143Z,15.50
2022-08-25T04:24:25.577Z,15.10
2022-08-25T04:26:55.152Z,14.70
2022-08-25T04:29:25.395Z,14.90
2022-08-25T04:31:55.108Z,14.80
2022-08-25T04:34:29.584Z,15.20
2022-08-25T04:37:03.082Z,13.90
2022-08-25T04:39:33.316Z,14.10
2022-08-25T04:42:02.530Z,13.70
2022-08-25T04:44:32.043Z,13.50
2022-08-25T04:47:00.846Z,13.20
2022-08-25T04:49:29.598Z,14.80
2022-08-25T04:51:57.681Z,13.40
2022-08-25T04:54:26.389Z,13.10
2022-08-25T04:56:58.070Z,12.70
2022-08-25T04:59:30.324Z,12.20
2022-08-25T05:02:03.224Z,13.10
2022-08-25T05:07:03.123Z,12.10
2022-08-25T05:09:33.026Z,13.50
2022-08-25T05:12:03.225Z,14.40
2022-08-25T05:14:32.853Z,13.70
2022-08-25T05:17:02.107Z,13.50
2022-08-25T05:19:30.982Z,14.50
2022-08-25T05:21:59.127Z,13.70
2022-08-25T05:24:28.322Z,14.20
2022-08-25T05:26:58.158Z,14.40
2022-08-25T05:29:27.285Z,13.20
2022-08-25T05:31:56.367Z,14.40
2022-08-25T05:34:25.226Z,13.10
2022-08-25T05:36:53.087Z,15.10
2022-08-25T05:39:20.852Z,13.90
2022-08-25T05:41:48.578Z,14.20
2022-08-25T05:44:20.876Z,15.40
2022-08-25T05:49:17.674Z,14.80
2022-08-25T05:51:45.507Z,14.80
2022-08-25T05:54:13.411Z,14.40
2022-08-25T05:56:41.263Z,15.50
2022-08-25T05:59:09.960Z,15.50
2022-08-25T06:01:56.810Z,15.10
2022-08-25T06:04:24.773Z,15.00
2022-08-25T06:06:54.998Z,14.70
2022-08-25T06:09:23.204Z,18.70
2022-08-25T06:11:54.660Z,17.80
2022-08-25T06:14:24.427Z,18.40
2022-08-25T06:16:53.168Z,18.50
2022-08-25T06:19:23.742Z,18.00
2022-08-25T06:21:57.618Z,17.60
2022-08-25T06:26:54.875Z,16.50
2022-08-25T06:29:25.475Z,16.70
2022-08-25T06:31:53.651Z,16.70
2022-08-25T06:34:23.877Z,15.90
2022-08-25T06:36:53.305Z,16.80
2022-08-25T06:39:22.688Z,16.00
2022-08-25T06:41:55.962Z,15.90
2022-08-25T06:44:24.406Z,16.90
2022-08-25T06:46:52.374Z,18.50
2022-08-25T06:49:20.665Z,17.90
2022-08-25T06:51:49.108Z,18.20
2022-08-25T06:54:18.417Z,17.80
2022-08-25T06:56:47.182Z,18.30
2022-08-25T06:59:19.008Z,18.40
2022-08-25T07:01:47.168Z,18.90
2022-08-25T07:04:19.376Z,17.90
2022-08-25T07:06:48.085Z,17.50
2022-08-25T07:09:15.923Z,18.40
2022-08-25T07:11:45.762Z,18.10
2022-08-25T07:14:16.546Z,17.00
2022-08-25T07:16:49.278Z,20.10
2022-08-25T07:19:21.020Z,20.20
2022-08-25T07:21:52.912Z,18.40
2022-08-25T07:24:22.699Z,20.00
2022-08-25T07:26:51.555Z,18.40
2022-08-25T07:29:31.976Z,20.60
2022-08-25T07:32:02.949Z,17.60
2022-08-25T07:34:52.156Z,16.10
2022-08-25T07:37:47.873Z,16.20
2022-08-25T07:40:22.664Z,16.80
2022-08-25T07:42:53.898Z,16.10
2022-08-25T07:45:29.900Z,16.10
2022-08-25T07:48:00.153Z,17.40
2022-08-25T07:50:29.964Z,16.50
2022-08-25T07:52:59.372Z,15.90
2022-08-25T07:55:30.592Z,18.20
2022-08-25T07:57:59.918Z,17.60
2022-08-25T08:00:30.319Z,16.20
2022-08-25T08:02:59.718Z,15.30
2022-08-25T08:05:28.906Z,14.50
2022-08-25T08:07:57.492Z,15.10
2022-08-25T08:10:47.887Z,15.00
2022-08-25T08:13:18.000Z,14.30
2022-08-25T08:18:16.367Z,14.10
2022-08-25T08:20:46.683Z,14.20
2022-08-25T08:23:15.209Z,15.00
2022-08-25T08:25:43.302Z,14.70
2022-08-25T08:28:12.121Z,18.00
2022-08-25T08:30:53.006Z,18.80
2022-08-25T08:33:23.017Z,16.90
2022-08-25T08:36:05.149Z,17.40
2022-08-25T08:38:37.760Z,15.60
2022-08-25T08:42:09.661Z,17.20
2022-08-25T08:44:45.293Z,15.70
2022-08-25T08:47:52.941Z,15.80
2022-08-25T08:50:51.861Z,14.30
2022-08-25T08:53:41.063Z,13.60
2022-08-25T08:56:16.127Z,13.00
2022-08-25T08:58:49.901Z,14.40
2022-08-25T09:01:26.763Z,14.80
2022-08-25T09:04:08.614Z,13.90
2022-08-25T09:06:42.722Z,12.20
2022-08-25T09:09:23.490Z,12.30
2022-08-25T09:12:28.255Z,12.00
2022-08-25T09:15:18.339Z,10.70
2022-08-25T09:18:00.105Z,12.20
2022-08-25T09:20:41.840Z,12.00
2022-08-25T09:23:31.759Z,10.00
2022-08-25T09:26:16.065Z,9.50
2022-08-25T09:28:55.670Z,8.70
2022-08-25T09:31:29.742Z,9.60
2022-08-25T09:34:02.090Z,9.10
2022-08-25T09:36:37.489Z,9.80
2022-08-25T09:39:08.125Z,8.90
2022-08-25T09:41:40.735Z,9.70
2022-08-25T09:44:20.449Z,9.60
2022-08-25T09:46:57.412Z,9.30
2022-08-25T09:49:44.850Z,9.50
2022-08-25T09:52:23.985Z,8.80
2022-08-25T09:54:56.254Z,7.90
2022-08-25T09:57:30.953Z,9.50
2022-08-25T10:00:30.673Z,9.00
2022-08-25T10:03:22.452Z,9.60
2022-08-25T10:06:03.393Z,9.50
2022-08-25T10:08:39.760Z,9.70
2022-08-25T10:11:15.708Z,9.40
2022-08-25T10:13:51.530Z,10.50
2022-08-25T10:16:35.620Z,9.00
2022-08-25T10:19:08.189Z,8.30
2022-08-25T10:24:06.714Z,7.20
2022-08-25T10:26:37.623Z,8.10
2022-08-25T10:29:32.604Z,8.70
2022-08-25T10:32:24.575Z,8.20
2022-08-25T10:34:56.794Z,8.00
2022-08-25T10:37:55.410Z,7.60
2022-08-25T10:40:37.500Z,7.60
2022-08-25T10:43:08.575Z,10.90
2022-08-25T10:46:18.722Z,7.60
2022-08-25T10:49:28.356Z,7.00
2022-08-25T10:52:07.689Z,7.80
2022-08-25T10:54:54.811Z,7.10
2022-08-25T10:57:46.737Z,7.00
2022-08-25T11:00:24.882Z,7.00
2022-08-25T11:03:26.682Z,7.10
2022-08-25T11:06:20.551Z,5.90
2022-08-25T11:09:00.738Z,6.30
2022-08-25T11:12:07.411Z,6.90
2022-08-25T11:14:49.818Z,6.20
2022-08-25T11:17:25.672Z,5.90
2022-08-25T11:20:04.069Z,4.80
2022-08-25T11:22:45.967Z,4.40
2022-08-25T11:25:32.401Z,4.80
2022-08-25T11:28:38.558Z,4.90
2022-08-25T11:31:08.735Z,5.10
2022-08-25T11:33:40.517Z,4.60
2022-08-25T11:36:29.486Z,6.60
2022-08-25T11:39:16.326Z,8.30
2022-08-25T11:42:09.142Z,4.80
2022-08-25T11:45:02.615Z,4.50
2022-08-25T11:47:33.554Z,5.20
2022-08-25T11:50:25.865Z,4.70
2022-08-25T11:53:15.363Z,4.70
2022-08-25T11:55:53.984Z,5.20
2022-08-25T11:58:28.068Z,4.60
2022-08-25T12:01:01.308Z,3.90
2022-08-25T12:03:32.093Z,4.40
2022-08-25T12:06:34.393Z,4.90
2022-08-25T12:09:04.994Z,5.00
2022-08-25T12:11:39.649Z,5.10
2022-08-25T12:14:22.466Z,4.70
2022-08-25T12:16:51.739Z,4.50
2022-08-25T12:19:35.608Z,4.40
2022-08-25T12:22:04.266Z,5.10
2022-08-25T12:24:48.098Z,4.10
2022-08-25T12:27:43.031Z,4.30
2022-08-25T12:30:18.620Z,4.20
2022-08-25T12:33:16.752Z,5.00
2022-08-25T12:36:03.361Z,4.00
2022-08-25T12:38:49.705Z,4.70
2022-08-25T12:41:24.490Z,4.70
2022-08-25T12:44:09.190Z,5.60
2022-08-25T12:46:39.666Z,4.80
2022-08-25T12:49:34.578Z,3.90
2022-08-25T12:52:07.152Z,3.90
2022-08-25T12:54:42.527Z,4.00
2022-08-25T12:57:40.332Z,4.50
2022-08-25T13:03:09.981Z,4.30
2022-08-25T13:05:41.164Z,4.30
2022-08-25T13:08:48.107Z,4.50
2022-08-25T13:11:39.041Z,6.10
2022-08-25T13:14:37.887Z,6.30
2022-08-25T13:17:07.228Z,7.30
2022-08-25T13:19:38.665Z,5.40
2022-08-25T13:22:16.374Z,4.50
2022-08-25T13:24:50.607Z,4.50
2022-08-25T13:27:27.657Z,5.30
2022-08-25T13:30:04.001Z,4.70
2022-08-25T13:32:38.173Z,4.70
2022-08-25T13:35:26.530Z,5.60
2022-08-25T13:38:16.761Z,5.60
2022-08-25T13:40:45.149Z,5.90
2022-08-25T13:43:15.021Z,6.30
2022-08-25T13:45:46.635Z,5.20
2022-08-25T13:48:31.361Z,4.80
2022-08-25T13:51:21.430Z,5.10
2022-08-25T13:53:58.372Z,6.70
2022-08-25T13:56:40.515Z,5.50
2022-08-25T13:59:28.544Z,5.60
2022-08-25T14:01:56.783Z,5.70
2022-08-25T14:04:33.079Z,5.60
2022-08-25T14:07:37.243Z,5.40
2022-08-25T14:10:11.446Z,5.40
2022-08-25T14:12:49.721Z,5.50
2022-08-25T14:15:17.920Z,4.90
2022-08-25T14:18:00.998Z,5.30
2022-08-25T14:20:31.839Z,31.30
2022-08-25T14:23:07.886Z,89.00
2022-08-25T14:25:42.233Z,61.00
2022-08-25T14:28:18.570Z,43.70
2022-08-25T14:31:00.163Z,28.30
2022-08-25T14:33:35.374Z,16.20
2022-08-25T14:36:05.492Z,12.30
2022-08-25T14:38:34.590Z,11.10
2022-08-25T14:41:02.576Z,7.80
2022-08-25T14:43:31.884Z,6.10
2022-08-25T14:46:10.655Z,5.80
2022-08-25T14:48:45.989Z,4.60
2022-08-25T14:51:17.501Z,5.40
2022-08-25T14:53:45.946Z,4.90
2022-08-25T14:56:14.309Z,4.90
2022-08-25T14:58:50.895Z,5.20
2022-08-25T15:01:28.777Z,5.50
2022-08-25T15:04:22.567Z,5.50
2022-08-25T15:06:56.079Z,4.80
2022-08-25T15:09:25.257Z,5.10
2022-08-25T15:12:01.640Z,5.60
2022-08-25T15:14:33.354Z,4.70
2022-08-25T15:17:03.643Z,5.40
2022-08-25T15:19:31.558Z,4.70
2022-08-25T15:21:59.798Z,5.20
2022-08-25T15:24:28.833Z,5.50
2022-08-25T15:27:00.260Z,5.20
2022-08-25T15:29:31.544Z,5.60
2022-08-25T15:32:01.215Z,5.20
2022-08-25T15:34:43.460Z,5.60
2022-08-25T15:37:18.384Z,5.30
2022-08-25T15:39:48.642Z,4.10
2022-08-25T15:42:17.118Z,4.50
2022-08-25T15:44:53.442Z,4.50
2022-08-25T15:47:24.193Z,5.30
2022-08-25T15:50:04.566Z,5.00
2022-08-25T15:52:44.514Z,4.70
2022-08-25T15:57:44.731Z,4.70
2022-08-25T16:00:16.798Z,4.30
2022-08-25T16:02:46.263Z,4.20
2022-08-25T16:05:16.198Z,4.40
2022-08-25T16:07:51.539Z,4.50
2022-08-25T16:10:20.959Z,4.70
2022-08-25T16:12:50.083Z,4.90
2022-08-25T16:15:17.941Z,5.10
2022-08-25T16:17:52.135Z,4.30
2022-08-25T16:20:21.110Z,4.30
2022-08-25T16:22:52.479Z,4.30
2022-08-25T16:25:21.290Z,4.20
2022-08-25T16:27:49.374Z,4.30
2022-08-25T16:30:18.292Z,4.00
2022-08-25T16:32:47.724Z,4.30
2022-08-25T16:35:15.727Z,4.70
2022-08-25T16:37:44.312Z,3.90
2022-08-25T16:40:14.670Z,3.90
2022-08-25T16:42:43.495Z,4.30
2022-08-25T16:45:12.190Z,4.30
2022-08-25T16:47:42.795Z,4.00
2022-08-25T16:50:12.213Z,4.10
2022-08-25T16:53:00.116Z,4.20
2022-08-25T16:55:39.000Z,3.90
2022-08-25T16:58:12.651Z,3.80
2022-08-25T17:00:43.815Z,3.90
2022-08-25T17:03:13.311Z,4.90
2022-08-25T17:05:42.940Z,4.00
2022-08-25T17:08:30.440Z,4.10
2022-08-25T17:11:27.614Z,3.80
2022-08-25T17:13:58.960Z,4.70
2022-08-25T17:16:31.388Z,5.00
2022-08-25T17:19:07.725Z,4.00
2022-08-25T17:21:45.083Z,4.50
2022-08-25T17:24:16.915Z,4.20
2022-08-25T17:26:47.312Z,4.20
2022-08-25T17:29:18.678Z,4.00
2022-08-25T17:31:48.484Z,4.50
2022-08-25T17:34:22.953Z,4.60
2022-08-25T17:36:54.504Z,4.30
2022-08-25T17:39:23.299Z,4.50
2022-08-25T17:41:52.487Z,4.50
2022-08-25T17:44:21.010Z,4.30
2022-08-25T17:46:49.495Z,5.00
2022-08-25T17:49:18.111Z,4.20
2022-08-25T17:51:46.108Z,4.90
2022-08-25T17:54:14.792Z,4.80
2022-08-25T17:56:44.989Z,4.50
2022-08-25T17:59:14.111Z,4.80
2022-08-25T18:01:42.746Z,4.10
2022-08-25T18:04:17.281Z,4.10
2022-08-25T18:06:48.732Z,4.50
2022-08-25T18:09:32.298Z,4.40
2022-08-25T18:12:00.521Z,4.40
2022-08-25T18:14:28.684Z,5.20
2022-08-25T18:16:57.363Z,4.90
2022-08-25T18:19:25.402Z,4.60
2022-08-25T18:21:53.267Z,4.60
2022-08-25T18:24:23.585Z,4.20
2022-08-25T18:26:51.734Z,4.40
2022-08-25T18:29:20.912Z,4.60
2022-08-25T18:31:49.061Z,5.00
2022-08-25T18:34:17.308Z,4.30
2022-08-25T18:36:46.815Z,4.10
2022-08-25T18:39:34.915Z,4.60
2022-08-25T18:42:05.694Z,4.60
2022-08-25T18:44:34.876Z,4.60
2022-08-25T18:47:07.698Z,5.00
2022-08-25T18:49:37.738Z,4.70
2022-08-25T18:52:07.527Z,5.10
2022-08-25T18:54:36.314Z,4.80
2022-08-25T18:57:05.072Z,5.60
2022-08-25T18:59:37.440Z,5.70
2022-08-25T19:02:07.723Z,6.50
2022-08-25T19:04:35.954Z,7.30
2022-08-25T19:07:05.935Z,6.80
2022-08-25T19:09:36.647Z,6.50
2022-08-25T19:12:06.095Z,7.30
2022-08-25T19:14:39.725Z,6.90
2022-08-25T19:17:08.893Z,6.60
2022-08-25T19:19:36.857Z,6.30
2022-08-25T19:22:04.887Z,6.80
2022-08-25T19:24:33.204Z,6.30
2022-08-25T19:27:03.116Z,5.90
2022-08-25T19:29:31.900Z,6.70
2022-08-25T19:32:01.478Z,5.90
2022-08-25T19:34:35.318Z,7.10
2022-08-25T19:37:04.638Z,5.60
2022-08-25T19:39:35.732Z,6.60
2022-08-25T19:42:08.303Z,5.30
2022-08-25T19:44:57.675Z,8.00
2022-08-25T19:47:26.082Z,9.30
2022-08-25T19:52:27.249Z,5.60
2022-08-25T19:54:57.057Z,5.20
2022-08-25T19:57:28.536Z,5.50
2022-08-25T20:00:29.550Z,5.40
2022-08-25T20:03:00.812Z,5.30
2022-08-25T20:05:30.174Z,6.00
2022-08-25T20:07:59.698Z,5.80
2022-08-25T20:10:33.953Z,5.90
2022-08-25T20:13:12.038Z,6.50
2022-08-25T20:15:41.260Z,5.60
2022-08-25T20:18:09.442Z,6.50
2022-08-25T20:21:06.479Z,6.20
2022-08-25T20:24:09.570Z,6.70
2022-08-25T20:26:38.737Z,6.10
2022-08-25T20:29:13.144Z,5.80
2022-08-25T20:31:41.606Z,6.30
2022-08-25T20:34:13.540Z,6.00
2022-08-25T20:36:50.024Z,6.00
2022-08-25T20:39:21.418Z,5.60
2022-08-25T20:41:50.222Z,6.00
2022-08-25T20:44:20.096Z,7.70
2022-08-25T20:46:52.531Z,6.00
2022-08-25T20:49:27.380Z,7.10
2022-08-25T20:51:57.230Z,6.40
2022-08-25T20:54:27.914Z,7.20
2022-08-25T20:56:58.559Z,6.40
2022-08-25T20:59:28.509Z,8.60
2022-08-25T21:01:58.463Z,7.00
2022-08-25T21:04:29.957Z,7.50
2022-08-25T21:07:01.202Z,6.60
2022-08-25T21:09:30.168Z,7.30
2022-08-25T21:12:01.804Z,7.50
2022-08-25T21:14:30.511Z,6.90
2022-08-25T21:17:01.463Z,7.60
2022-08-25T21:19:32.229Z,7.50
2022-08-25T21:22:02.006Z,7.80
2022-08-25T21:24:30.344Z,7.50
2022-08-25T21:27:00.228Z,8.60
2022-08-25T21:29:29.998Z,6.90
2022-08-25T21:31:59.798Z,7.10
2022-08-25T21:34:31.295Z,8.00
2022-08-25T21:37:00.390Z,8.90
2022-08-25T21:39:32.497Z,7.70
2022-08-25T21:42:02.091Z,8.70
2022-08-25T21:44:30.803Z,9.30
2022-08-25T21:47:00.157Z,8.40
2022-08-25T21:49:28.183Z,8.70
2022-08-25T21:52:00.859Z,8.40
2022-08-25T21:54:30.461Z,8.00
2022-08-25T21:57:03.321Z,8.60
2022-08-25T21:59:37.789Z,8.90
2022-08-25T22:02:11.403Z,7.80
2022-08-25T22:04:42.189Z,8.30
2022-08-25T22:07:12.398Z,8.60
2022-08-25T22:09:42.070Z,9.10
2022-08-25T22:12:12.815Z,8.40
2022-08-25T22:14:45.215Z,8.40
2022-08-25T22:17:17.038Z,8.70
2022-08-25T22:19:53.855Z,8.00
2022-08-25T22:22:25.511Z,7.40
2022-08-25T22:24:53.590Z,8.40
2022-08-25T22:27:23.363Z,8.30
2022-08-25T22:32:55.857Z,8.80
2022-08-25T22:35:25.356Z,8.40
2022-08-25T22:37:55.271Z,8.50
2022-08-25T22:40:23.115Z,8.40
2022-08-25T22:42:55.027Z,8.10
2022-08-25T22:45:23.178Z,8.20
2022-08-25T22:47:53.435Z,8.60
2022-08-25T22:50:23.223Z,8.80
2022-08-25T22:52:52.741Z,9.20
2022-08-25T22:55:22.624Z,9.10
2022-08-25T22:57:50.420Z,8.70
2022-08-25T23:00:25.157Z,8.30
2022-08-25T23:03:12.549Z,8.60
2022-08-25T23:05:42.498Z,9.00
2022-08-25T23:08:11.990Z,8.60
2022-08-25T23:13:34.750Z,8.10
2022-08-25T23:16:10.193Z,8.40
2022-08-25T23:18:43.769Z,7.80
2022-08-25T23:21:37.858Z,8.70
2022-08-25T23:24:13.428Z,8.40
2022-08-25T23:26:43.370Z,8.90
2022-08-25T23:29:20.425Z,8.10
2022-08-25T23:31:48.520Z,8.30
2022-08-25T23:34:18.140Z,8.30
2022-08-25T23:36:45.960Z,7.80
2022-08-25T23:39:17.404Z,8.50
2022-08-25T23:41:47.226Z,8.00
2022-08-25T23:44:21.415Z,8.50
2022-08-25T23:46:51.428Z,9.00
2022-08-25T23:49:23.472Z,7.50
2022-08-25T23:51:57.264Z,8.90
2022-08-25T23:54:31.429Z,9.30
2022-08-25T23:57:01.597Z,7.80
2022-08-25T23:59:30.929Z,7.70
